X

Important NEWS



New Hub Active

Miami is our new hub! Old members can request transfer via hr@dlxairways.net

Thank you very much and have nice flight.


Deluxe Airways.

X

Tours



Hello again, we created one nice test tour for all pilots to attend. also this is ment to be testing of our tour system

Available Tours

If you find some issues please inform us.

Thank you very much and have nice flight.


Deluxe Airways.

 METAR AND TAF INFORMATION
ArrayMETAR FOR LDZA
248000257 3 LDZA 222100Z 00000KT CAVOK 12/09 Q1021 NOSIG LDZA 2020-10-22T21:00:00Z 45.72 16.07 12.0 9.0 0 0 6.21 30.147638 TRUE VFR METAR 103.0 LDZA 222030Z 24005KT 190V280 CAVOK 12/09 Q1021 NOSIG LDZA 2020-10-22T20:30:00Z 45.72 16.07 12.0 9.0 240 5 6.21 30.147638 TRUE VFR METAR 103.0 LDZA 222000Z 22006KT CAVOK 12/09 Q1021 NOSIG LDZA 2020-10-22T20:00:00Z 45.72 16.07 12.0 9.0 220 6 6.21 30.147638 TRUE VFR METAR 103.0 LDZA 221930Z 23004KT CAVOK 12/09 Q1021 NOSIG LDZA 2020-10-22T19:30:00Z 45.72 16.07 12.0 9.0 230 4 6.21 30.147638 TRUE VFR METAR 103.0

 AIRPORT MAP

 RUNWAY INFORMATION
Runway 05 Runway length 10669 ft Runway width 148 ft
Runway elevation 353 ft Runway displaced threshold 0 ft Runway heading 47
Runway 23 Runway length 10669 ft Runway width 148 ft
Runway elevation 348 ft Runway displaced threshold 0 ft Runway heading 227

 AIRPORT FREQUENCIES
Type APP Name APP Frequency 120.7 MHZ
Type ATIS Name ATIS Frequency 124.375 MHZ
Type GND Name GND Frequency 121.85 MHZ
Type INFO Name INFO Frequency 124.85 MHZ
Type RDR Name RADAR Frequency 120.7 MHZ
Type TWR Name TWR Frequency 118.3 MHZ

 AIRPORT NEAR NAVIGATION AIDS
Type DME Name Iza Frequency 109500 KHZ
Type NDB Name Pisarovina Frequency 424 KHZ
Type NDB Name S.kKaljevec Frequency 350 KHZ
Type NDB Name Velika Gorica Frequency 325 KHZ
Type VOR-DME Name Zagreb Frequency 113700 KHZ
Type NDB Name Zagreb Frequency 367 KHZ



Powered by Virtual Airlines Manager [v2.6.2]

Template code change by DeluxeAir